sensor_id;sensor_type;location;lat;lon;timestamp;P1;durP1;ratioP1;P2;durP2;ratioP2
49834;SDS011;35729;52.090;13.162;2023-02-01T00:01:31;17.38;;;3.25;;
49834;SDS011;35729;52.090;13.162;2023-02-01T00:03:59;17.98;;;3.35;;
49834;SDS011;35729;52.090;13.162;2023-02-01T00:06:28;19.23;;;2.92;;
49834;SDS011;35729;52.090;13.162;2023-02-01T00:08:57;23.00;;;3.22;;
49834;SDS011;35729;52.090;13.162;2023-02-01T00:11:25;20.25;;;3.13;;
49834;SDS011;35729;52.090;13.162;2023-02-01T00:13:54;18.67;;;2.83;;
49834;SDS011;35729;52.090;13.162;2023-02-01T00:16:24;13.80;;;2.58;;
49834;SDS011;35729;52.090;13.162;2023-02-01T00:18:59;14.38;;;3.08;;
49834;SDS011;35729;52.090;13.162;2023-02-01T00:21:29;18.48;;;3.78;;
49834;SDS011;35729;52.090;13.162;2023-02-01T00:23:58;21.60;;;3.60;;
49834;SDS011;35729;52.090;13.162;2023-02-01T00:26:30;22.58;;;3.25;;
49834;SDS011;35729;52.090;13.162;2023-02-01T00:28:59;21.95;;;4.25;;
49834;SDS011;35729;52.090;13.162;2023-02-01T00:31:28;16.83;;;2.72;;
49834;SDS011;35729;52.090;13.162;2023-02-01T00:34:00;15.68;;;2.83;;
49834;SDS011;35729;52.090;13.162;2023-02-01T00:36:28;28.88;;;3.50;;
49834;SDS011;35729;52.090;13.162;2023-02-01T00:38:57;16.10;;;3.67;;
49834;SDS011;35729;52.090;13.162;2023-02-01T00:41:25;15.55;;;2.35;;
49834;SDS011;35729;52.090;13.162;2023-02-01T00:43:54;16.33;;;2.45;;
49834;SDS011;35729;52.090;13.162;2023-02-01T00:46:35;21.77;;;2.55;;
49834;SDS011;35729;52.090;13.162;2023-02-01T00:49:07;15.52;;;2.80;;
49834;SDS011;35729;52.090;13.162;2023-02-01T00:51:35;19.27;;;3.67;;
49834;SDS011;35729;52.090;13.162;2023-02-01T00:54:04;19.10;;;3.25;;
49834;SDS011;35729;52.090;13.162;2023-02-01T00:56:32;15.52;;;3.00;;
49834;SDS011;35729;52.090;13.162;2023-02-01T00:59:01;14.43;;;3.03;;
49834;SDS011;35729;52.090;13.162;2023-02-01T01:01:29;15.65;;;2.92;;
49834;SDS011;35729;52.090;13.162;2023-02-01T01:03:58;16.20;;;2.72;;
49834;SDS011;35729;52.090;13.162;2023-02-01T01:06:30;18.23;;;4.43;;
49834;SDS011;35729;52.090;13.162;2023-02-01T01:09:01;14.75;;;2.83;;
49834;SDS011;35729;52.090;13.162;2023-02-01T01:11:32;20.40;;;3.45;;
49834;SDS011;35729;52.090;13.162;2023-02-01T01:14:03;16.58;;;3.10;;
49834;SDS011;35729;52.090;13.162;2023-02-01T01:16:33;14.10;;;3.22;;
49834;SDS011;35729;52.090;13.162;2023-02-01T01:19:02;11.27;;;2.97;;
49834;SDS011;35729;52.090;13.162;2023-02-01T01:21:33;15.98;;;2.90;;
49834;SDS011;35729;52.090;13.162;2023-02-01T01:24:01;14.90;;;2.45;;
49834;SDS011;35729;52.090;13.162;2023-02-01T01:26:30;15.38;;;2.88;;
49834;SDS011;35729;52.090;13.162;2023-02-01T01:28:59;13.70;;;2.28;;
49834;SDS011;35729;52.090;13.162;2023-02-01T01:31:27;12.38;;;2.55;;
49834;SDS011;35729;52.090;13.162;2023-02-01T01:33:58;16.48;;;2.65;;
49834;SDS011;35729;52.090;13.162;2023-02-01T01:36:27;20.00;;;2.50;;
49834;SDS011;35729;52.090;13.162;2023-02-01T01:38:59;13.88;;;2.30;;
49834;SDS011;35729;52.090;13.162;2023-02-01T01:41:29;14.50;;;3.15;;
49834;SDS011;35729;52.090;13.162;2023-02-01T01:44:00;14.70;;;2.45;;
49834;SDS011;35729;52.090;13.162;2023-02-01T01:46:30;17.65;;;3.97;;
49834;SDS011;35729;52.090;13.162;2023-02-01T01:49:07;17.50;;;2.90;;
49834;SDS011;35729;52.090;13.162;2023-02-01T01:51:40;23.77;;;3.35;;
49834;SDS011;35729;52.090;13.162;2023-02-01T01:54:15;14.85;;;2.60;;
49834;SDS011;35729;52.090;13.162;2023-02-01T01:56:47;13.75;;;2.63;;
49834;SDS011;35729;52.090;13.162;2023-02-01T01:59:19;10.60;;;2.35;;
49834;SDS011;35729;52.090;13.162;2023-02-01T02:01:49;18.05;;;2.67;;
49834;SDS011;35729;52.090;13.162;2023-02-01T02:04:18;17.95;;;3.40;;
49834;SDS011;35729;52.090;13.162;2023-02-01T02:06:49;12.85;;;3.13;;
49834;SDS011;35729;52.090;13.162;2023-02-01T02:09:25;12.30;;;2.40;;
49834;SDS011;35729;52.090;13.162;2023-02-01T02:11:53;15.63;;;2.78;;
49834;SDS011;35729;52.090;13.162;2023-02-01T02:14:22;23.73;;;3.17;;
49834;SDS011;35729;52.090;13.162;2023-02-01T02:16:54;12.50;;;2.55;;
49834;SDS011;35729;52.090;13.162;2023-02-01T02:19:43;19.00;;;2.78;;
49834;SDS011;35729;52.090;13.162;2023-02-01T02:22:32;19.48;;;3.33;;
49834;SDS011;35729;52.090;13.162;2023-02-01T02:25:18;12.95;;;2.28;;
49834;SDS011;35729;52.090;13.162;2023-02-01T02:28:03;14.00;;;2.70;;
49834;SDS011;35729;52.090;13.162;2023-02-01T02:30:50;16.02;;;2.70;;
49834;SDS011;35729;52.090;13.162;2023-02-01T02:33:42;23.88;;;3.13;;
49834;SDS011;35729;52.090;13.162;2023-02-01T02:36:23;12.82;;;2.75;;
49834;SDS011;35729;52.090;13.162;2023-02-01T02:39:05;16.02;;;3.20;;
49834;SDS011;35729;52.090;13.162;2023-02-01T02:41:39;14.23;;;2.30;;
49834;SDS011;35729;52.090;13.162;2023-02-01T02:44:28;21.83;;;3.33;;
49834;SDS011;35729;52.090;13.162;2023-02-01T02:47:16;14.20;;;2.92;;
49834;SDS011;35729;52.090;13.162;2023-02-01T02:49:58;28.30;;;2.90;;
49834;SDS011;35729;52.090;13.162;2023-02-01T02:52:51;15.23;;;2.85;;
49834;SDS011;35729;52.090;13.162;2023-02-01T02:55:36;24.85;;;3.10;;
49834;SDS011;35729;52.090;13.162;2023-02-01T02:58:07;22.70;;;3.47;;
49834;SDS011;35729;52.090;13.162;2023-02-01T03:00:49;14.02;;;2.70;;
49834;SDS011;35729;52.090;13.162;2023-02-01T03:03:31;15.95;;;2.70;;
49834;SDS011;35729;52.090;13.162;2023-02-01T03:06:19;16.92;;;3.30;;
49834;SDS011;35729;52.090;13.162;2023-02-01T03:08:50;17.30;;;3.22;;
49834;SDS011;35729;52.090;13.162;2023-02-01T03:11:22;21.58;;;3.95;;
49834;SDS011;35729;52.090;13.162;2023-02-01T03:14:11;20.20;;;3.15;;
49834;SDS011;35729;52.090;13.162;2023-02-01T03:16:41;15.80;;;2.95;;
49834;SDS011;35729;52.090;13.162;2023-02-01T03:19:17;13.98;;;3.50;;
49834;SDS011;35729;52.090;13.162;2023-02-01T03:21:53;20.05;;;2.78;;
49834;SDS011;35729;52.090;13.162;2023-02-01T03:24:28;22.75;;;3.00;;
49834;SDS011;35729;52.090;13.162;2023-02-01T03:27:02;19.45;;;3.28;;
49834;SDS011;35729;52.090;13.162;2023-02-01T03:29:38;15.05;;;3.35;;
49834;SDS011;35729;52.090;13.162;2023-02-01T03:32:12;17.63;;;3.80;;
49834;SDS011;35729;52.090;13.162;2023-02-01T03:34:41;18.70;;;2.95;;
49834;SDS011;35729;52.090;13.162;2023-02-01T03:37:13;14.82;;;2.75;;
49834;SDS011;35729;52.090;13.162;2023-02-01T03:39:48;24.00;;;3.42;;
49834;SDS011;35729;52.090;13.162;2023-02-01T03:42:24;20.83;;;3.53;;
49834;SDS011;35729;52.090;13.162;2023-02-01T03:45:00;15.95;;;2.95;;
49834;SDS011;35729;52.090;13.162;2023-02-01T03:47:36;17.88;;;3.45;;
49834;SDS011;35729;52.090;13.162;2023-02-01T03:50:09;19.80;;;3.70;;
49834;SDS011;35729;52.090;13.162;2023-02-01T03:52:44;19.02;;;3.15;;
49834;SDS011;35729;52.090;13.162;2023-02-01T03:55:17;20.13;;;4.30;;
49834;SDS011;35729;52.090;13.162;2023-02-01T03:57:50;15.00;;;3.03;;
49834;SDS011;35729;52.090;13.162;2023-02-01T04:00:23;16.85;;;3.17;;
49834;SDS011;35729;52.090;13.162;2023-02-01T04:02:52;18.30;;;2.60;;
49834;SDS011;35729;52.090;13.162;2023-02-01T04:05:21;14.45;;;2.30;;
49834;SDS011;35729;52.090;13.162;2023-02-01T04:07:53;15.90;;;3.70;;
49834;SDS011;35729;52.090;13.162;2023-02-01T04:10:21;22.30;;;3.28;;
49834;SDS011;35729;52.090;13.162;2023-02-01T04:12:50;15.52;;;2.65;;
49834;SDS011;35729;52.090;13.162;2023-02-01T04:15:19;17.27;;;3.42;;
49834;SDS011;35729;52.090;13.162;2023-02-01T04:17:47;19.08;;;3.28;;
49834;SDS011;35729;52.090;13.162;2023-02-01T04:20:16;16.75;;;3.08;;
49834;SDS011;35729;52.090;13.162;2023-02-01T04:22:44;17.48;;;2.97;;
49834;SDS011;35729;52.090;13.162;2023-02-01T04:25:15;22.40;;;3.25;;
49834;SDS011;35729;52.090;13.162;2023-02-01T04:27:45;20.88;;;3.70;;
49834;SDS011;35729;52.090;13.162;2023-02-01T04:30:14;14.82;;;3.33;;
49834;SDS011;35729;52.090;13.162;2023-02-01T04:32:43;17.08;;;2.88;;
49834;SDS011;35729;52.090;13.162;2023-02-01T04:35:11;19.00;;;3.03;;
49834;SDS011;35729;52.090;13.162;2023-02-01T04:37:40;17.42;;;2.80;;
49834;SDS011;35729;52.090;13.162;2023-02-01T04:40:09;18.50;;;3.40;;
49834;SDS011;35729;52.090;13.162;2023-02-01T04:42:41;22.20;;;4.00;;
49834;SDS011;35729;52.090;13.162;2023-02-01T04:45:10;19.13;;;3.20;;
49834;SDS011;35729;52.090;13.162;2023-02-01T04:47:39;18.13;;;3.67;;
49834;SDS011;35729;52.090;13.162;2023-02-01T04:50:08;20.90;;;3.53;;
49834;SDS011;35729;52.090;13.162;2023-02-01T04:52:37;16.80;;;4.15;;
49834;SDS011;35729;52.090;13.162;2023-02-01T04:55:06;21.92;;;3.58;;
49834;SDS011;35729;52.090;13.162;2023-02-01T04:57:36;21.88;;;3.60;;
49834;SDS011;35729;52.090;13.162;2023-02-01T05:00:09;22.15;;;3.28;;
49834;SDS011;35729;52.090;13.162;2023-02-01T05:02:38;17.60;;;3.00;;
49834;SDS011;35729;52.090;13.162;2023-02-01T05:05:07;22.17;;;3.83;;
49834;SDS011;35729;52.090;13.162;2023-02-01T05:07:36;26.27;;;4.30;;
49834;SDS011;35729;52.090;13.162;2023-02-01T05:10:05;14.43;;;2.92;;
49834;SDS011;35729;52.090;13.162;2023-02-01T05:12:35;16.90;;;3.75;;
49834;SDS011;35729;52.090;13.162;2023-02-01T05:15:18;23.13;;;3.45;;
49834;SDS011;35729;52.090;13.162;2023-02-01T05:17:47;18.33;;;3.55;;
49834;SDS011;35729;52.090;13.162;2023-02-01T05:20:15;23.45;;;5.10;;
49834;SDS011;35729;52.090;13.162;2023-02-01T05:22:44;28.23;;;4.25;;
49834;SDS011;35729;52.090;13.162;2023-02-01T05:25:13;25.52;;;3.75;;
49834;SDS011;35729;52.090;13.162;2023-02-01T05:27:41;23.90;;;4.35;;
49834;SDS011;35729;52.090;13.162;2023-02-01T05:30:10;17.98;;;3.65;;
49834;SDS011;35729;52.090;13.162;2023-02-01T05:32:42;18.30;;;3.28;;
49834;SDS011;35729;52.090;13.162;2023-02-01T05:35:11;16.15;;;3.38;;
49834;SDS011;35729;52.090;13.162;2023-02-01T05:37:39;25.67;;;3.95;;
49834;SDS011;35729;52.090;13.162;2023-02-01T05:40:08;18.10;;;3.45;;
49834;SDS011;35729;52.090;13.162;2023-02-01T05:42:38;24.30;;;3.55;;
49834;SDS011;35729;52.090;13.162;2023-02-01T05:45:07;21.80;;;4.50;;
49834;SDS011;35729;52.090;13.162;2023-02-01T05:47:36;26.90;;;4.95;;
49834;SDS011;35729;52.090;13.162;2023-02-01T05:50:08;20.35;;;3.53;;
49834;SDS011;35729;52.090;13.162;2023-02-01T05:52:37;23.60;;;3.58;;
49834;SDS011;35729;52.090;13.162;2023-02-01T05:55:06;17.05;;;3.75;;
49834;SDS011;35729;52.090;13.162;2023-02-01T05:57:35;18.23;;;3.33;;
49834;SDS011;35729;52.090;13.162;2023-02-01T06:00:04;19.20;;;3.28;;
49834;SDS011;35729;52.090;13.162;2023-02-01T06:02:33;16.48;;;3.28;;
49834;SDS011;35729;52.090;13.162;2023-02-01T06:05:02;20.95;;;3.92;;
49834;SDS011;35729;52.090;13.162;2023-02-01T06:07:34;24.98;;;3.58;;
49834;SDS011;35729;52.090;13.162;2023-02-01T06:10:02;19.88;;;3.80;;
49834;SDS011;35729;52.090;13.162;2023-02-01T06:12:31;17.30;;;3.45;;
49834;SDS011;35729;52.090;13.162;2023-02-01T06:15:00;24.63;;;3.97;;
49834;SDS011;35729;52.090;13.162;2023-02-01T06:17:29;24.75;;;3.00;;
49834;SDS011;35729;52.090;13.162;2023-02-01T06:19:57;16.27;;;3.42;;
49834;SDS011;35729;52.090;13.162;2023-02-01T06:22:26;20.52;;;3.47;;
49834;SDS011;35729;52.090;13.162;2023-02-01T06:24:57;14.10;;;3.17;;
49834;SDS011;35729;52.090;13.162;2023-02-01T06:27:26;21.77;;;3.65;;
49834;SDS011;35729;52.090;13.162;2023-02-01T06:29:54;21.00;;;4.03;;
49834;SDS011;35729;52.090;13.162;2023-02-01T06:32:23;18.75;;;3.10;;
49834;SDS011;35729;52.090;13.162;2023-02-01T06:34:51;16.25;;;2.90;;
49834;SDS011;35729;52.090;13.162;2023-02-01T06:37:21;19.17;;;3.63;;
49834;SDS011;35729;52.090;13.162;2023-02-01T06:39:50;14.57;;;3.47;;
49834;SDS011;35729;52.090;13.162;2023-02-01T06:42:21;22.08;;;4.13;;
49834;SDS011;35729;52.090;13.162;2023-02-01T06:44:57;21.05;;;3.80;;
49834;SDS011;35729;52.090;13.162;2023-02-01T06:47:25;16.35;;;3.97;;
49834;SDS011;35729;52.090;13.162;2023-02-01T06:49:54;12.70;;;3.65;;
49834;SDS011;35729;52.090;13.162;2023-02-01T06:52:22;13.23;;;3.75;;
49834;SDS011;35729;52.090;13.162;2023-02-01T06:54:51;18.70;;;2.90;;
49834;SDS011;35729;52.090;13.162;2023-02-01T06:57:22;17.65;;;3.20;;
49834;SDS011;35729;52.090;13.162;2023-02-01T06:59:52;22.10;;;3.35;;
49834;SDS011;35729;52.090;13.162;2023-02-01T07:02:21;11.68;;;3.47;;
49834;SDS011;35729;52.090;13.162;2023-02-01T07:04:49;16.88;;;3.88;;
49834;SDS011;35729;52.090;13.162;2023-02-01T07:07:17;15.93;;;3.20;;
49834;SDS011;35729;52.090;13.162;2023-02-01T07:09:47;16.70;;;3.15;;
49834;SDS011;35729;52.090;13.162;2023-02-01T07:12:16;15.40;;;3.38;;
49834;SDS011;35729;52.090;13.162;2023-02-01T07:14:47;15.50;;;4.03;;
49834;SDS011;35729;52.090;13.162;2023-02-01T07:17:15;15.18;;;3.22;;
49834;SDS011;35729;52.090;13.162;2023-02-01T07:19:44;14.52;;;3.13;;
49834;SDS011;35729;52.090;13.162;2023-02-01T07:22:12;19.27;;;4.20;;
49834;SDS011;35729;52.090;13.162;2023-02-01T07:24:43;17.35;;;3.58;;
49834;SDS011;35729;52.090;13.162;2023-02-01T07:27:19;13.80;;;3.28;;
49834;SDS011;35729;52.090;13.162;2023-02-01T07:29:52;16.45;;;3.65;;
49834;SDS011;35729;52.090;13.162;2023-02-01T07:32:21;12.20;;;3.70;;
49834;SDS011;35729;52.090;13.162;2023-02-01T07:34:50;13.40;;;3.58;;
49834;SDS011;35729;52.090;13.162;2023-02-01T07:37:18;12.90;;;3.25;;
49834;SDS011;35729;52.090;13.162;2023-02-01T07:39:47;20.20;;;4.03;;
49834;SDS011;35729;52.090;13.162;2023-02-01T07:42:15;21.20;;;4.15;;
49834;SDS011;35729;52.090;13.162;2023-02-01T07:44:44;13.55;;;3.63;;
49834;SDS011;35729;52.090;13.162;2023-02-01T07:47:15;23.05;;;4.40;;
49834;SDS011;35729;52.090;13.162;2023-02-01T07:49:45;15.50;;;4.32;;
49834;SDS011;35729;52.090;13.162;2023-02-01T07:52:13;18.05;;;4.38;;
49834;SDS011;35729;52.090;13.162;2023-02-01T07:54:43;19.45;;;3.97;;
49834;SDS011;35729;52.090;13.162;2023-02-01T07:57:12;20.52;;;3.70;;
49834;SDS011;35729;52.090;13.162;2023-02-01T07:59:40;14.45;;;3.67;;
49834;SDS011;35729;52.090;13.162;2023-02-01T08:02:31;15.35;;;3.42;;
49834;SDS011;35729;52.090;13.162;2023-02-01T08:04:57;12.15;;;3.30;;
49834;SDS011;35729;52.090;13.162;2023-02-01T08:07:26;18.80;;;4.50;;
49834;SDS011;35729;52.090;13.162;2023-02-01T08:09:54;17.23;;;5.03;;
49834;SDS011;35729;52.090;13.162;2023-02-01T08:12:23;17.02;;;4.03;;
49834;SDS011;35729;52.090;13.162;2023-02-01T08:14:52;13.15;;;3.65;;
49834;SDS011;35729;52.090;13.162;2023-02-01T08:17:21;16.38;;;4.68;;
49834;SDS011;35729;52.090;13.162;2023-02-01T08:19:53;13.52;;;4.13;;
49834;SDS011;35729;52.090;13.162;2023-02-01T08:22:22;14.40;;;4.13;;
49834;SDS011;35729;52.090;13.162;2023-02-01T08:24:51;12.63;;;4.68;;
49834;SDS011;35729;52.090;13.162;2023-02-01T08:27:26;18.23;;;4.68;;
49834;SDS011;35729;52.090;13.162;2023-02-01T08:29:56;18.67;;;4.70;;
49834;SDS011;35729;52.090;13.162;2023-02-01T08:32:25;19.30;;;5.93;;
49834;SDS011;35729;52.090;13.162;2023-02-01T08:34:56;19.17;;;5.65;;
49834;SDS011;35729;52.090;13.162;2023-02-01T08:37:25;15.15;;;4.68;;
49834;SDS011;35729;52.090;13.162;2023-02-01T08:39:53;17.60;;;4.93;;
49834;SDS011;35729;52.090;13.162;2023-02-01T08:42:22;18.67;;;4.95;;
49834;SDS011;35729;52.090;13.162;2023-02-01T08:45:03;18.73;;;5.20;;
49834;SDS011;35729;52.090;13.162;2023-02-01T08:47:33;25.27;;;5.78;;
49834;SDS011;35729;52.090;13.162;2023-02-01T08:50:04;20.20;;;5.55;;
49834;SDS011;35729;52.090;13.162;2023-02-01T08:52:34;18.08;;;5.22;;
49834;SDS011;35729;52.090;13.162;2023-02-01T08:55:02;17.65;;;5.10;;
49834;SDS011;35729;52.090;13.162;2023-02-01T08:57:31;17.55;;;5.68;;
49834;SDS011;35729;52.090;13.162;2023-02-01T09:00:00;17.85;;;4.93;;
49834;SDS011;35729;52.090;13.162;2023-02-01T09:02:31;17.52;;;5.63;;
49834;SDS011;35729;52.090;13.162;2023-02-01T09:04:59;16.50;;;5.40;;
49834;SDS011;35729;52.090;13.162;2023-02-01T09:07:31;17.95;;;5.35;;
49834;SDS011;35729;52.090;13.162;2023-02-01T09:10:00;17.10;;;5.68;;
49834;SDS011;35729;52.090;13.162;2023-02-01T09:12:29;14.50;;;4.90;;
49834;SDS011;35729;52.090;13.162;2023-02-01T09:14:59;19.70;;;5.43;;
49834;SDS011;35729;52.090;13.162;2023-02-01T09:17:28;14.65;;;5.25;;
49834;SDS011;35729;52.090;13.162;2023-02-01T09:19:58;12.38;;;4.30;;
49834;SDS011;35729;52.090;13.162;2023-02-01T09:22:26;17.52;;;5.43;;
49834;SDS011;35729;52.090;13.162;2023-02-01T09:24:57;9.50;;;3.85;;
49834;SDS011;35729;52.090;13.162;2023-02-01T09:27:26;13.68;;;3.70;;
49834;SDS011;35729;52.090;13.162;2023-02-01T09:29:54;12.43;;;3.63;;
49834;SDS011;35729;52.090;13.162;2023-02-01T09:32:23;11.02;;;3.50;;
49834;SDS011;35729;52.090;13.162;2023-02-01T09:34:52;7.47;;;2.92;;
49834;SDS011;35729;52.090;13.162;2023-02-01T09:37:20;9.00;;;2.88;;
49834;SDS011;35729;52.090;13.162;2023-02-01T09:40:15;8.23;;;2.90;;
49834;SDS011;35729;52.090;13.162;2023-02-01T09:42:56;5.75;;;2.50;;
49834;SDS011;35729;52.090;13.162;2023-02-01T09:45:44;9.60;;;2.78;;
49834;SDS011;35729;52.090;13.162;2023-02-01T09:48:27;4.35;;;3.10;;
49834;SDS011;35729;52.090;13.162;2023-02-01T09:51:01;6.97;;;3.13;;
49834;SDS011;35729;52.090;13.162;2023-02-01T09:53:33;7.32;;;2.03;;
49834;SDS011;35729;52.090;13.162;2023-02-01T09:56:10;5.03;;;2.08;;
49834;SDS011;35729;52.090;13.162;2023-02-01T09:58:41;6.45;;;1.95;;
49834;SDS011;35729;52.090;13.162;2023-02-01T10:01:14;6.93;;;2.55;;
49834;SDS011;35729;52.090;13.162;2023-02-01T10:06:25;6.28;;;3.40;;
49834;SDS011;35729;52.090;13.162;2023-02-01T10:09:07;4.55;;;2.78;;
49834;SDS011;35729;52.090;13.162;2023-02-01T10:11:50;3.60;;;2.40;;
49834;SDS011;35729;52.090;13.162;2023-02-01T10:14:36;4.45;;;2.65;;
49834;SDS011;35729;52.090;13.162;2023-02-01T10:17:25;6.00;;;3.10;;
49834;SDS011;35729;52.090;13.162;2023-02-01T10:20:08;5.25;;;2.88;;
49834;SDS011;35729;52.090;13.162;2023-02-01T10:22:46;7.90;;;3.00;;
49834;SDS011;35729;52.090;13.162;2023-02-01T10:25:22;5.03;;;2.80;;
49834;SDS011;35729;52.090;13.162;2023-02-01T10:27:58;6.88;;;2.70;;
49834;SDS011;35729;52.090;13.162;2023-02-01T10:30:30;4.60;;;2.22;;
49834;SDS011;35729;52.090;13.162;2023-02-01T10:33:12;5.03;;;2.28;;
49834;SDS011;35729;52.090;13.162;2023-02-01T10:35:44;6.07;;;2.80;;
49834;SDS011;35729;52.090;13.162;2023-02-01T10:38:18;5.53;;;2.78;;
49834;SDS011;35729;52.090;13.162;2023-02-01T10:40:53;7.60;;;2.85;;
49834;SDS011;35729;52.090;13.162;2023-02-01T10:43:29;8.98;;;2.30;;
49834;SDS011;35729;52.090;13.162;2023-02-01T10:45:59;7.95;;;2.70;;
49834;SDS011;35729;52.090;13.162;2023-02-01T10:48:28;7.43;;;2.15;;
49834;SDS011;35729;52.090;13.162;2023-02-01T10:50:58;7.90;;;2.65;;
49834;SDS011;35729;52.090;13.162;2023-02-01T10:53:29;6.68;;;2.70;;
49834;SDS011;35729;52.090;13.162;2023-02-01T10:56:05;7.25;;;1.88;;
49834;SDS011;35729;52.090;13.162;2023-02-01T10:58:45;7.57;;;2.15;;
49834;SDS011;35729;52.090;13.162;2023-02-01T11:01:17;4.85;;;1.98;;
49834;SDS011;35729;52.090;13.162;2023-02-01T11:03:52;4.65;;;1.98;;
49834;SDS011;35729;52.090;13.162;2023-02-01T11:06:24;8.48;;;2.05;;
49834;SDS011;35729;52.090;13.162;2023-02-01T11:08:57;8.68;;;1.75;;
49834;SDS011;35729;52.090;13.162;2023-02-01T11:11:27;7.40;;;1.70;;
49834;SDS011;35729;52.090;13.162;2023-02-01T11:13:59;10.82;;;1.90;;
49834;SDS011;35729;52.090;13.162;2023-02-01T11:16:38;7.22;;;2.35;;
49834;SDS011;35729;52.090;13.162;2023-02-01T11:19:07;6.88;;;1.80;;
49834;SDS011;35729;52.090;13.162;2023-02-01T11:21:43;12.63;;;1.98;;
49834;SDS011;35729;52.090;13.162;2023-02-01T11:24:16;6.10;;;1.70;;
49834;SDS011;35729;52.090;13.162;2023-02-01T11:26:51;6.78;;;2.08;;
49834;SDS011;35729;52.090;13.162;2023-02-01T11:29:35;5.25;;;1.55;;
49834;SDS011;35729;52.090;13.162;2023-02-01T11:32:06;7.00;;;1.63;;
49834;SDS011;35729;52.090;13.162;2023-02-01T11:34:38;7.93;;;1.90;;
49834;SDS011;35729;52.090;13.162;2023-02-01T11:37:14;8.73;;;2.03;;
49834;SDS011;35729;52.090;13.162;2023-02-01T11:39:53;8.10;;;2.00;;
49834;SDS011;35729;52.090;13.162;2023-02-01T11:42:23;7.07;;;1.77;;
49834;SDS011;35729;52.090;13.162;2023-02-01T11:45:07;6.97;;;2.05;;
49834;SDS011;35729;52.090;13.162;2023-02-01T11:47:46;7.97;;;1.90;;
49834;SDS011;35729;52.090;13.162;2023-02-01T11:50:21;10.65;;;1.95;;
49834;SDS011;35729;52.090;13.162;2023-02-01T11:53:06;10.02;;;2.10;;
49834;SDS011;35729;52.090;13.162;2023-02-01T11:55:52;7.20;;;1.77;;
49834;SDS011;35729;52.090;13.162;2023-02-01T11:58:33;13.38;;;1.80;;
49834;SDS011;35729;52.090;13.162;2023-02-01T12:01:25;6.57;;;1.70;;
49834;SDS011;35729;52.090;13.162;2023-02-01T12:07:13;9.52;;;1.92;;
49834;SDS011;35729;52.090;13.162;2023-02-01T12:09:49;8.02;;;1.95;;
49834;SDS011;35729;52.090;13.162;2023-02-01T12:12:39;5.20;;;1.83;;
49834;SDS011;35729;52.090;13.162;2023-02-01T12:15:22;5.97;;;1.63;;
49834;SDS011;35729;52.090;13.162;2023-02-01T12:18:15;5.65;;;1.65;;
49834;SDS011;35729;52.090;13.162;2023-02-01T12:21:06;4.75;;;1.85;;
49834;SDS011;35729;52.090;13.162;2023-02-01T12:23:54;9.20;;;2.00;;
49834;SDS011;35729;52.090;13.162;2023-02-01T12:26:38;5.43;;;1.60;;
49834;SDS011;35729;52.090;13.162;2023-02-01T12:29:20;8.07;;;1.58;;
49834;SDS011;35729;52.090;13.162;2023-02-01T12:32:06;6.05;;;1.83;;
49834;SDS011;35729;52.090;13.162;2023-02-01T12:34:54;8.90;;;1.88;;
49834;SDS011;35729;52.090;13.162;2023-02-01T12:37:36;7.25;;;1.85;;
49834;SDS011;35729;52.090;13.162;2023-02-01T12:40:21;7.47;;;2.60;;
49834;SDS011;35729;52.090;13.162;2023-02-01T12:43:04;6.00;;;1.63;;
49834;SDS011;35729;52.090;13.162;2023-02-01T12:45:41;5.53;;;1.42;;
49834;SDS011;35729;52.090;13.162;2023-02-01T12:48:20;10.60;;;2.83;;
49834;SDS011;35729;52.090;13.162;2023-02-01T12:50:59;6.82;;;1.80;;
49834;SDS011;35729;52.090;13.162;2023-02-01T12:53:33;10.82;;;2.58;;
49834;SDS011;35729;52.090;13.162;2023-02-01T12:56:14;12.07;;;2.83;;
49834;SDS011;35729;52.090;13.162;2023-02-01T12:58:50;15.82;;;2.28;;
49834;SDS011;35729;52.090;13.162;2023-02-01T13:01:21;6.82;;;2.03;;
49834;SDS011;35729;52.090;13.162;2023-02-01T13:03:57;7.90;;;2.35;;
49834;SDS011;35729;52.090;13.162;2023-02-01T13:06:38;8.77;;;1.67;;
49834;SDS011;35729;52.090;13.162;2023-02-01T13:09:16;6.15;;;1.60;;
49834;SDS011;35729;52.090;13.162;2023-02-01T13:11:50;7.47;;;1.90;;
49834;SDS011;35729;52.090;13.162;2023-02-01T13:14:24;8.63;;;1.80;;
49834;SDS011;35729;52.090;13.162;2023-02-01T13:16:59;9.43;;;2.30;;
49834;SDS011;35729;52.090;13.162;2023-02-01T13:19:40;8.85;;;1.55;;
49834;SDS011;35729;52.090;13.162;2023-02-01T13:22:15;10.68;;;2.10;;
49834;SDS011;35729;52.090;13.162;2023-02-01T13:24:49;10.63;;;2.28;;
49834;SDS011;35729;52.090;13.162;2023-02-01T13:27:21;8.43;;;1.83;;
49834;SDS011;35729;52.090;13.162;2023-02-01T13:29:53;9.80;;;2.13;;
49834;SDS011;35729;52.090;13.162;2023-02-01T13:35:24;9.85;;;2.53;;
49834;SDS011;35729;52.090;13.162;2023-02-01T13:38:33;14.27;;;2.58;;
49834;SDS011;35729;52.090;13.162;2023-02-01T13:41:15;10.35;;;2.25;;
49834;SDS011;35729;52.090;13.162;2023-02-01T13:43:54;10.82;;;2.85;;
49834;SDS011;35729;52.090;13.162;2023-02-01T13:46:25;12.23;;;2.65;;
49834;SDS011;35729;52.090;13.162;2023-02-01T13:48:57;14.13;;;2.80;;
49834;SDS011;35729;52.090;13.162;2023-02-01T13:51:35;12.80;;;2.53;;
49834;SDS011;35729;52.090;13.162;2023-02-01T13:54:21;11.93;;;2.67;;
49834;SDS011;35729;52.090;13.162;2023-02-01T13:56:56;13.43;;;3.00;;
49834;SDS011;35729;52.090;13.162;2023-02-01T14:08:39;9.93;;;2.30;;
49834;SDS011;35729;52.090;13.162;2023-02-01T14:23:22;20.23;;;3.42;;
49834;SDS011;35729;52.090;13.162;2023-02-01T14:26:04;14.02;;;2.30;;
49834;SDS011;35729;52.090;13.162;2023-02-01T14:28:38;12.20;;;2.72;;
49834;SDS011;35729;52.090;13.162;2023-02-01T14:33:54;8.20;;;2.28;;
49834;SDS011;35729;52.090;13.162;2023-02-01T14:36:25;14.57;;;2.58;;
49834;SDS011;35729;52.090;13.162;2023-02-01T14:39:18;10.18;;;2.33;;
49834;SDS011;35729;52.090;13.162;2023-02-01T14:41:51;10.32;;;2.65;;
49834;SDS011;35729;52.090;13.162;2023-02-01T14:44:27;10.02;;;2.85;;
49834;SDS011;35729;52.090;13.162;2023-02-01T14:53:04;9.75;;;2.65;;
49834;SDS011;35729;52.090;13.162;2023-02-01T14:55:44;6.35;;;2.10;;
49834;SDS011;35729;52.090;13.162;2023-02-01T14:58:16;9.82;;;3.00;;
49834;SDS011;35729;52.090;13.162;2023-02-01T15:00:55;5.68;;;2.28;;
49834;SDS011;35729;52.090;13.162;2023-02-01T15:03:33;6.80;;;2.08;;
49834;SDS011;35729;52.090;13.162;2023-02-01T15:06:13;9.85;;;2.00;;
49834;SDS011;35729;52.090;13.162;2023-02-01T15:08:57;6.53;;;2.03;;
49834;SDS011;35729;52.090;13.162;2023-02-01T15:11:29;6.28;;;1.95;;
49834;SDS011;35729;52.090;13.162;2023-02-01T15:13:58;10.77;;;2.35;;
49834;SDS011;35729;52.090;13.162;2023-02-01T15:16:29;10.45;;;2.78;;
49834;SDS011;35729;52.090;13.162;2023-02-01T15:19:07;11.23;;;2.70;;
49834;SDS011;35729;52.090;13.162;2023-02-01T15:21:44;11.73;;;2.63;;
49834;SDS011;35729;52.090;13.162;2023-02-01T15:24:17;8.05;;;2.60;;
49834;SDS011;35729;52.090;13.162;2023-02-01T15:29:17;10.40;;;2.85;;
49834;SDS011;35729;52.090;13.162;2023-02-01T15:31:50;8.65;;;3.00;;
49834;SDS011;35729;52.090;13.162;2023-02-01T15:34:20;17.27;;;4.30;;
49834;SDS011;35729;52.090;13.162;2023-02-01T15:36:49;7.78;;;3.20;;
49834;SDS011;35729;52.090;13.162;2023-02-01T15:39:19;14.13;;;3.50;;
49834;SDS011;35729;52.090;13.162;2023-02-01T15:41:51;11.75;;;3.80;;
49834;SDS011;35729;52.090;13.162;2023-02-01T15:44:30;12.20;;;3.85;;